sensor_id;sensor_type;location;lat;lon;timestamp;pressure;altitude;pressure_sealevel;temperature;humidity
38225;BME280;24025;48.138;11.428;2024-02-23T00:02:10;93633.44;;;7.10;100.00
38225;BME280;24025;48.138;11.428;2024-02-23T00:04:42;93633.47;;;6.96;100.00
38225;BME280;24025;48.138;11.428;2024-02-23T00:07:13;93644.50;;;6.91;100.00
38225;BME280;24025;48.138;11.428;2024-02-23T00:09:45;93640.34;;;6.86;100.00
38225;BME280;24025;48.138;11.428;2024-02-23T00:12:16;93647.88;;;6.98;100.00
38225;BME280;24025;48.138;11.428;2024-02-23T00:14:48;93656.59;;;6.92;100.00
38225;BME280;24025;48.138;11.428;2024-02-23T00:17:22;93656.22;;;6.90;100.00
38225;BME280;24025;48.138;11.428;2024-02-23T00:19:54;93663.38;;;6.96;98.02
38225;BME280;24025;48.138;11.428;2024-02-23T00:22:26;93657.00;;;6.90;95.81
38225;BME280;24025;48.138;11.428;2024-02-23T00:24:57;93652.03;;;6.96;97.13
38225;BME280;24025;48.138;11.428;2024-02-23T00:27:29;93659.59;;;6.97;97.75
38225;BME280;24025;48.138;11.428;2024-02-23T00:30:00;93652.41;;;6.94;95.67
38225;BME280;24025;48.138;11.428;2024-02-23T00:32:32;93649.75;;;6.98;97.86
38225;BME280;24025;48.138;11.428;2024-02-23T00:35:04;93649.38;;;6.99;95.85
38225;BME280;24025;48.138;11.428;2024-02-23T00:37:36;93658.44;;;7.02;94.15
38225;BME280;24025;48.138;11.428;2024-02-23T00:40:08;93652.41;;;7.01;93.71
38225;BME280;24025;48.138;11.428;2024-02-23T00:42:41;93669.06;;;6.95;92.06
38225;BME280;24025;48.138;11.428;2024-02-23T00:45:12;93667.16;;;7.02;91.54
38225;BME280;24025;48.138;11.428;2024-02-23T00:47:44;93670.56;;;7.03;91.18
38225;BME280;24025;48.138;11.428;2024-02-23T00:50:18;93680.03;;;7.00;90.35
38225;BME280;24025;48.138;11.428;2024-02-23T00:52:50;93684.19;;;7.01;93.11
38225;BME280;24025;48.138;11.428;2024-02-23T00:55:22;93690.22;;;7.05;93.79
38225;BME280;24025;48.138;11.428;2024-02-23T00:57:56;93697.88;;;6.89;93.40
38225;BME280;24025;48.138;11.428;2024-02-23T01:00:28;93705.78;;;6.93;91.95
38225;BME280;24025;48.138;11.428;2024-02-23T01:02:59;93703.50;;;6.98;92.70
38225;BME280;24025;48.138;11.428;2024-02-23T01:05:31;93701.22;;;7.04;92.63
38225;BME280;24025;48.138;11.428;2024-02-23T01:08:03;93706.50;;;7.07;90.94
38225;BME280;24025;48.138;11.428;2024-02-23T01:10:35;93725.44;;;7.09;91.01
38225;BME280;24025;48.138;11.428;2024-02-23T01:13:07;93717.09;;;7.04;89.83
38225;BME280;24025;48.138;11.428;2024-02-23T01:15:38;93714.09;;;6.95;89.96
38225;BME280;24025;48.138;11.428;2024-02-23T01:18:10;93729.59;;;7.03;90.17
38225;BME280;24025;48.138;11.428;2024-02-23T01:20:42;93723.53;;;7.06;87.56
38225;BME280;24025;48.138;11.428;2024-02-23T01:23:13;93733.78;;;6.97;86.53
38225;BME280;24025;48.138;11.428;2024-02-23T01:25:45;93744.38;;;6.97;85.37
38225;BME280;24025;48.138;11.428;2024-02-23T01:28:17;93745.88;;;7.02;86.65
38225;BME280;24025;48.138;11.428;2024-02-23T01:30:48;93756.88;;;6.93;86.64
38225;BME280;24025;48.138;11.428;2024-02-23T01:33:20;93760.66;;;6.96;87.28
38225;BME280;24025;48.138;11.428;2024-02-23T01:35:52;93754.63;;;6.88;86.25
38225;BME280;24025;48.138;11.428;2024-02-23T01:38:23;93752.38;;;6.83;84.99
38225;BME280;24025;48.138;11.428;2024-02-23T01:40:56;93746.69;;;6.70;85.32
38225;BME280;24025;48.138;11.428;2024-02-23T01:43:28;93745.97;;;6.73;86.37
38225;BME280;24025;48.138;11.428;2024-02-23T01:45:59;93745.56;;;6.71;85.06
38225;BME280;24025;48.138;11.428;2024-02-23T01:48:32;93738.75;;;6.70;86.01
38225;BME280;24025;48.138;11.428;2024-02-23T01:51:05;93732.72;;;6.59;87.08
38225;BME280;24025;48.138;11.428;2024-02-23T01:53:36;93743.72;;;6.54;87.05
38225;BME280;24025;48.138;11.428;2024-02-23T01:56:08;93747.50;;;6.49;86.77
38225;BME280;24025;48.138;11.428;2024-02-23T01:58:40;93750.53;;;6.55;86.84
38225;BME280;24025;48.138;11.428;2024-02-23T02:01:12;93744.84;;;6.57;86.40
38225;BME280;24025;48.138;11.428;2024-02-23T02:03:43;93747.84;;;6.59;87.74
38225;BME280;24025;48.138;11.428;2024-02-23T02:06:15;93735.00;;;6.57;88.42
38225;BME280;24025;48.138;11.428;2024-02-23T02:08:47;93742.94;;;6.61;88.37
38225;BME280;24025;48.138;11.428;2024-02-23T02:11:19;93733.88;;;6.44;88.07
38225;BME280;24025;48.138;11.428;2024-02-23T02:13:50;93744.84;;;6.39;88.00
38225;BME280;24025;48.138;11.428;2024-02-23T02:16:22;93742.56;;;6.48;88.89
38225;BME280;24025;48.138;11.428;2024-02-23T02:18:54;93755.81;;;6.51;89.21
38225;BME280;24025;48.138;11.428;2024-02-23T02:21:25;93763.38;;;6.49;87.33
38225;BME280;24025;48.138;11.428;2024-02-23T02:23:57;93758.47;;;6.41;87.37
38225;BME280;24025;48.138;11.428;2024-02-23T02:26:29;93763.00;;;6.47;88.29
38225;BME280;24025;48.138;11.428;2024-02-23T02:29:01;93756.56;;;6.48;86.45
38225;BME280;24025;48.138;11.428;2024-02-23T02:31:33;93760.34;;;6.47;86.19
38225;BME280;24025;48.138;11.428;2024-02-23T02:34:08;93767.53;;;6.47;85.60
38225;BME280;24025;48.138;11.428;2024-02-23T02:36:40;93769.81;;;6.41;85.70
38225;BME280;24025;48.138;11.428;2024-02-23T02:39:12;93767.91;;;6.38;85.60
38225;BME280;24025;48.138;11.428;2024-02-23T02:41:44;93767.53;;;6.36;84.39
38225;BME280;24025;48.138;11.428;2024-02-23T02:44:16;93763.00;;;6.40;85.54
38225;BME280;24025;48.138;11.428;2024-02-23T02:46:47;93769.81;;;6.38;86.06
38225;BME280;24025;48.138;11.428;2024-02-23T02:49:19;93770.56;;;6.42;85.21
38225;BME280;24025;48.138;11.428;2024-02-23T02:51:50;93770.94;;;6.30;84.07
38225;BME280;24025;48.138;11.428;2024-02-23T02:54:23;93775.09;;;6.38;84.74
38225;BME280;24025;48.138;11.428;2024-02-23T02:56:54;93766.78;;;6.39;85.70
38225;BME280;24025;48.138;11.428;2024-02-23T02:59:26;93778.13;;;6.43;85.80
38225;BME280;24025;48.138;11.428;2024-02-23T03:01:59;93781.53;;;6.37;85.86
38225;BME280;24025;48.138;11.428;2024-02-23T03:04:30;93768.66;;;6.39;84.88
38225;BME280;24025;48.138;11.428;2024-02-23T03:07:02;93772.44;;;6.34;84.75
38225;BME280;24025;48.138;11.428;2024-02-23T03:09:34;93772.44;;;6.34;83.03
38225;BME280;24025;48.138;11.428;2024-02-23T03:12:05;93771.31;;;6.32;83.12
38225;BME280;24025;48.138;11.428;2024-02-23T03:14:37;93776.59;;;6.32;83.42
38225;BME280;24025;48.138;11.428;2024-02-23T03:17:12;93776.63;;;6.39;82.77
38225;BME280;24025;48.138;11.428;2024-02-23T03:19:44;93777.34;;;6.36;82.90
38225;BME280;24025;48.138;11.428;2024-02-23T03:22:15;93783.81;;;6.38;83.88
38225;BME280;24025;48.138;11.428;2024-02-23T03:24:47;93781.53;;;6.30;83.01
38225;BME280;24025;48.138;11.428;2024-02-23T03:27:19;93786.81;;;6.22;83.72
38225;BME280;24025;48.138;11.428;2024-02-23T03:29:58;93782.66;;;6.29;84.84
38225;BME280;24025;48.138;11.428;2024-02-23T03:32:29;93778.50;;;6.24;84.07
38225;BME280;24025;48.138;11.428;2024-02-23T03:35:07;93784.16;;;6.22;84.38
38225;BME280;24025;48.138;11.428;2024-02-23T03:37:42;93781.53;;;6.19;84.74
38225;BME280;24025;48.138;11.428;2024-02-23T03:40:14;93793.59;;;6.16;84.96
38225;BME280;24025;48.138;11.428;2024-02-23T03:42:46;93798.13;;;6.16;85.40
38225;BME280;24025;48.138;11.428;2024-02-23T03:45:18;93802.66;;;6.01;87.00
38225;BME280;24025;48.138;11.428;2024-02-23T03:47:49;93805.63;;;5.89;89.68
38225;BME280;24025;48.138;11.428;2024-02-23T03:50:21;93798.03;;;5.77;88.64
38225;BME280;24025;48.138;11.428;2024-02-23T03:52:53;93791.59;;;5.78;89.22
38225;BME280;24025;48.138;11.428;2024-02-23T03:55:24;93796.13;;;5.66;89.67
38225;BME280;24025;48.138;11.428;2024-02-23T03:57:56;93803.69;;;5.79;90.79
38225;BME280;24025;48.138;11.428;2024-02-23T04:00:28;93804.06;;;5.70;90.96
38225;BME280;24025;48.138;11.428;2024-02-23T04:02:59;93796.13;;;5.70;91.00
38225;BME280;24025;48.138;11.428;2024-02-23T04:05:31;93787.44;;;5.66;91.21
38225;BME280;24025;48.138;11.428;2024-02-23T04:08:03;93793.84;;;5.68;91.66
38225;BME280;24025;48.138;11.428;2024-02-23T04:10:36;93796.50;;;5.72;92.48
38225;BME280;24025;48.138;11.428;2024-02-23T04:13:08;93801.03;;;5.72;90.72
38225;BME280;24025;48.138;11.428;2024-02-23T04:15:40;93804.06;;;5.70;89.11
38225;BME280;24025;48.138;11.428;2024-02-23T04:18:11;93805.94;;;5.69;88.24
38225;BME280;24025;48.138;11.428;2024-02-23T04:20:43;93804.81;;;5.71;87.41
38225;BME280;24025;48.138;11.428;2024-02-23T04:23:15;93807.38;;;5.49;86.33
38225;BME280;24025;48.138;11.428;2024-02-23T04:25:46;93803.59;;;5.54;88.16
38225;BME280;24025;48.138;11.428;2024-02-23T04:28:18;93804.66;;;5.35;87.94
38225;BME280;24025;48.138;11.428;2024-02-23T04:30:49;93803.56;;;5.39;90.13
38225;BME280;24025;48.138;11.428;2024-02-23T04:33:21;93802.03;;;5.38;88.76
38225;BME280;24025;48.138;11.428;2024-02-23T04:35:53;93805.00;;;5.26;90.17
38225;BME280;24025;48.138;11.428;2024-02-23T04:38:24;93806.16;;;5.32;92.27
38225;BME280;24025;48.138;11.428;2024-02-23T04:40:56;93804.53;;;5.10;90.07
38225;BME280;24025;48.138;11.428;2024-02-23T04:43:28;93798.16;;;5.15;92.62
38225;BME280;24025;48.138;11.428;2024-02-23T04:45:59;93815.19;;;5.28;92.94
38225;BME280;24025;48.138;11.428;2024-02-23T04:48:31;93822.66;;;5.11;92.41
38225;BME280;24025;48.138;11.428;2024-02-23T04:51:03;93807.97;;;5.18;96.68
38225;BME280;24025;48.138;11.428;2024-02-23T04:53:37;93806.84;;;5.19;97.67
38225;BME280;24025;48.138;11.428;2024-02-23T04:56:09;93777.41;;;5.20;100.00
38225;BME280;24025;48.138;11.428;2024-02-23T04:58:40;93784.91;;;5.04;99.52
38225;BME280;24025;48.138;11.428;2024-02-23T05:01:14;93788.97;;;4.94;100.00
38225;BME280;24025;48.138;11.428;2024-02-23T05:03:45;93780.69;;;4.96;100.00
38225;BME280;24025;48.138;11.428;2024-02-23T05:06:17;93776.56;;;5.02;100.00
38225;BME280;24025;48.138;11.428;2024-02-23T05:08:49;93771.72;;;5.11;100.00
38225;BME280;24025;48.138;11.428;2024-02-23T05:11:20;93770.25;;;5.21;100.00
38225;BME280;24025;48.138;11.428;2024-02-23T05:13:52;93777.31;;;4.99;100.00
38225;BME280;24025;48.138;11.428;2024-02-23T05:16:24;93791.00;;;5.19;100.00
38225;BME280;24025;48.138;11.428;2024-02-23T05:18:56;93794.81;;;5.25;100.00
38225;BME280;24025;48.138;11.428;2024-02-23T05:21:27;93789.53;;;5.25;100.00
38225;BME280;24025;48.138;11.428;2024-02-23T05:23:59;93792.22;;;5.35;100.00
38225;BME280;24025;48.138;11.428;2024-02-23T05:26:30;93795.22;;;5.34;100.00
38225;BME280;24025;48.138;11.428;2024-02-23T05:29:02;93794.72;;;5.10;100.00
38225;BME280;24025;48.138;11.428;2024-02-23T05:31:49;93795.97;;;5.31;100.00
38225;BME280;24025;48.138;11.428;2024-02-23T05:34:21;93798.25;;;5.32;100.00
38225;BME280;24025;48.138;11.428;2024-02-23T05:36:53;93802.44;;;5.40;99.91
38225;BME280;24025;48.138;11.428;2024-02-23T05:39:24;93807.72;;;5.44;99.40
38225;BME280;24025;48.138;11.428;2024-02-23T05:41:56;93805.47;;;5.46;99.97
38225;BME280;24025;48.138;11.428;2024-02-23T05:44:28;93807.72;;;5.48;99.47
38225;BME280;24025;48.138;11.428;2024-02-23T05:47:00;93805.84;;;5.45;100.00
38225;BME280;24025;48.138;11.428;2024-02-23T05:49:32;93807.38;;;5.49;100.00
38225;BME280;24025;48.138;11.428;2024-02-23T05:52:04;93811.53;;;5.50;100.00
38225;BME280;24025;48.138;11.428;2024-02-23T05:54:35;93823.97;;;5.46;99.85
38225;BME280;24025;48.138;11.428;2024-02-23T05:57:07;93829.63;;;5.45;100.00
38225;BME280;24025;48.138;11.428;2024-02-23T05:59:38;93828.53;;;5.49;100.00
38225;BME280;24025;48.138;11.428;2024-02-23T06:02:10;93834.56;;;5.53;100.00
38225;BME280;24025;48.138;11.428;2024-02-23T06:04:41;93844.78;;;5.51;100.00
38225;BME280;24025;48.138;11.428;2024-02-23T06:07:13;93839.06;;;5.46;99.19
38225;BME280;24025;48.138;11.428;2024-02-23T06:09:47;93843.22;;;5.43;99.02
38225;BME280;24025;48.138;11.428;2024-02-23T06:12:18;93845.09;;;5.39;99.19
38225;BME280;24025;48.138;11.428;2024-02-23T06:14:51;93843.50;;;5.27;100.00
38225;BME280;24025;48.138;11.428;2024-02-23T06:17:22;93849.53;;;5.28;98.49
38225;BME280;24025;48.138;11.428;2024-02-23T06:19:55;93849.50;;;5.21;98.58
38225;BME280;24025;48.138;11.428;2024-02-23T06:22:29;93854.78;;;5.17;97.85
38225;BME280;24025;48.138;11.428;2024-02-23T06:25:02;93853.97;;;5.09;97.48
38225;BME280;24025;48.138;11.428;2024-02-23T06:27:34;93848.31;;;5.11;95.45
38225;BME280;24025;48.138;11.428;2024-02-23T06:30:06;93860.81;;;5.14;95.62
38225;BME280;24025;48.138;11.428;2024-02-23T06:32:37;93854.78;;;5.17;95.08
38225;BME280;24025;48.138;11.428;2024-02-23T06:35:09;93849.16;;;5.26;94.67
38225;BME280;24025;48.138;11.428;2024-02-23T06:37:43;93861.63;;;5.29;94.73
38225;BME280;24025;48.138;11.428;2024-02-23T06:40:15;93860.91;;;5.32;93.68
38225;BME280;24025;48.138;11.428;2024-02-23T06:42:46;93862.81;;;5.35;95.85
38225;BME280;24025;48.138;11.428;2024-02-23T06:45:18;93857.56;;;5.42;96.93
38225;BME280;24025;48.138;11.428;2024-02-23T06:47:50;93853.03;;;5.43;95.70
38225;BME280;24025;48.138;11.428;2024-02-23T06:50:22;93854.56;;;5.47;94.97
38225;BME280;24025;48.138;11.428;2024-02-23T06:52:54;93853.09;;;5.53;94.79
38225;BME280;24025;48.138;11.428;2024-02-23T06:55:25;93842.13;;;5.55;93.84
38225;BME280;24025;48.138;11.428;2024-02-23T06:57:57;93851.59;;;5.59;92.95
38225;BME280;24025;48.138;11.428;2024-02-23T07:00:29;93853.50;;;5.62;93.20
38225;BME280;24025;48.138;11.428;2024-02-23T07:03:02;93864.03;;;5.55;91.08
38225;BME280;24025;48.138;11.428;2024-02-23T07:05:35;93867.47;;;5.59;91.52
38225;BME280;24025;48.138;11.428;2024-02-23T07:08:08;93875.78;;;5.61;92.08
38225;BME280;24025;48.138;11.428;2024-02-23T07:10:39;93880.72;;;5.66;90.90
38225;BME280;24025;48.138;11.428;2024-02-23T07:13:11;93877.56;;;5.43;90.54
38225;BME280;24025;48.138;11.428;2024-02-23T07:15:43;93885.56;;;5.50;91.80
38225;BME280;24025;48.138;11.428;2024-02-23T07:18:15;93884.09;;;5.60;90.31
38225;BME280;24025;48.138;11.428;2024-02-23T07:20:47;93884.84;;;5.64;89.97
38225;BME280;24025;48.138;11.428;2024-02-23T07:23:19;93887.50;;;5.64;89.73
38225;BME280;24025;48.138;11.428;2024-02-23T07:25:51;93890.91;;;5.64;90.45
38225;BME280;24025;48.138;11.428;2024-02-23T07:28:22;93899.25;;;5.66;89.56
38225;BME280;24025;48.138;11.428;2024-02-23T07:30:54;93895.03;;;5.62;89.85
38225;BME280;24025;48.138;11.428;2024-02-23T07:33:26;93891.25;;;5.59;89.08
38225;BME280;24025;48.138;11.428;2024-02-23T07:35:58;93893.13;;;5.55;88.55
38225;BME280;24025;48.138;11.428;2024-02-23T07:38:30;93897.66;;;5.55;87.95
38225;BME280;24025;48.138;11.428;2024-02-23T07:41:01;93904.84;;;5.58;89.95
38225;BME280;24025;48.138;11.428;2024-02-23T07:43:33;93903.41;;;5.67;91.05
38225;BME280;24025;48.138;11.428;2024-02-23T07:46:05;93899.63;;;5.72;87.95
38225;BME280;24025;48.138;11.428;2024-02-23T07:48:39;93901.53;;;5.75;86.96
38225;BME280;24025;48.138;11.428;2024-02-23T07:51:11;93891.72;;;5.83;87.49
38225;BME280;24025;48.138;11.428;2024-02-23T07:53:43;93897.06;;;5.90;86.40
38225;BME280;24025;48.138;11.428;2024-02-23T07:56:14;93883.06;;;5.89;88.67
38225;BME280;24025;48.138;11.428;2024-02-23T07:58:46;93895.59;;;5.92;87.37
38225;BME280;24025;48.138;11.428;2024-02-23T08:01:18;93885.41;;;5.94;85.46
38225;BME280;24025;48.138;11.428;2024-02-23T08:03:50;93881.25;;;5.93;88.46
38225;BME280;24025;48.138;11.428;2024-02-23T08:06:21;93877.09;;;6.00;86.61
38225;BME280;24025;48.138;11.428;2024-02-23T08:08:53;93862.34;;;5.99;84.19
38225;BME280;24025;48.138;11.428;2024-02-23T08:11:26;93851.00;;;5.98;85.55
38225;BME280;24025;48.138;11.428;2024-02-23T08:13:58;93855.97;;;6.10;85.19
38225;BME280;24025;48.138;11.428;2024-02-23T08:16:29;93858.22;;;6.08;83.26
38225;BME280;24025;48.138;11.428;2024-02-23T08:19:01;93868.84;;;6.19;84.36
38225;BME280;24025;48.138;11.428;2024-02-23T08:21:33;93868.47;;;6.20;84.15
38225;BME280;24025;48.138;11.428;2024-02-23T08:24:05;93862.06;;;6.32;83.26
38225;BME280;24025;48.138;11.428;2024-02-23T08:26:36;93854.47;;;6.27;83.36
38225;BME280;24025;48.138;11.428;2024-02-23T08:29:09;93852.63;;;6.42;82.97
38225;BME280;24025;48.138;11.428;2024-02-23T08:31:41;93856.78;;;6.50;82.11
38225;BME280;24025;48.138;11.428;2024-02-23T08:34:13;93866.28;;;6.55;81.96
38225;BME280;24025;48.138;11.428;2024-02-23T08:36:45;93859.47;;;6.57;80.01
38225;BME280;24025;48.138;11.428;2024-02-23T08:39:16;93872.31;;;6.62;81.91
38225;BME280;24025;48.138;11.428;2024-02-23T08:41:48;93875.34;;;6.71;81.55
38225;BME280;24025;48.138;11.428;2024-02-23T08:44:19;93879.13;;;6.67;80.15
38225;BME280;24025;48.138;11.428;2024-02-23T08:46:51;93877.53;;;6.12;79.44
38225;BME280;24025;48.138;11.428;2024-02-23T08:49:23;93879.84;;;6.28;80.90
38225;BME280;24025;48.138;11.428;2024-02-23T08:51:54;93884.25;;;5.92;81.63
38225;BME280;24025;48.138;11.428;2024-02-23T08:54:27;93890.38;;;6.17;82.81
38225;BME280;24025;48.138;11.428;2024-02-23T08:56:59;93913.50;;;6.31;82.43
38225;BME280;24025;48.138;11.428;2024-02-23T08:59:30;93921.06;;;6.33;81.07
38225;BME280;24025;48.138;11.428;2024-02-23T09:02:02;93926.72;;;6.35;82.40
38225;BME280;24025;48.138;11.428;2024-02-23T09:04:34;93921.44;;;6.28;82.02
38225;BME280;24025;48.138;11.428;2024-02-23T09:07:06;93922.47;;;6.02;82.51
38225;BME280;24025;48.138;11.428;2024-02-23T09:09:37;93925.56;;;6.21;84.07
38225;BME280;24025;48.138;11.428;2024-02-23T09:12:10;93931.66;;;6.36;83.47
38225;BME280;24025;48.138;11.428;2024-02-23T09:14:42;93940.34;;;6.44;82.75
38225;BME280;24025;48.138;11.428;2024-02-23T09:17:14;93947.56;;;6.47;80.58
38225;BME280;24025;48.138;11.428;2024-02-23T09:19:47;93951.34;;;6.46;81.68
38225;BME280;24025;48.138;11.428;2024-02-23T09:22:18;93949.03;;;6.34;81.54
38225;BME280;24025;48.138;11.428;2024-02-23T09:24:50;93951.72;;;6.41;82.19
38225;BME280;24025;48.138;11.428;2024-02-23T09:27:22;93949.78;;;6.31;82.70
38225;BME280;24025;48.138;11.428;2024-02-23T09:29:53;93947.56;;;6.36;82.39
38225;BME280;24025;48.138;11.428;2024-02-23T09:32:25;93945.28;;;6.38;79.82
38225;BME280;24025;48.138;11.428;2024-02-23T09:34:57;93939.97;;;6.38;80.01
38225;BME280;24025;48.138;11.428;2024-02-23T09:37:28;93944.13;;;6.29;78.65
38225;BME280;24025;48.138;11.428;2024-02-23T09:40:00;93941.81;;;6.27;79.26
38225;BME280;24025;48.138;11.428;2024-02-23T09:42:33;93941.13;;;6.44;79.42
38225;BME280;24025;48.138;11.428;2024-02-23T09:45:04;93942.94;;;6.26;79.76
38225;BME280;24025;48.138;11.428;2024-02-23T09:47:38;93953.19;;;6.35;79.35
38225;BME280;24025;48.138;11.428;2024-02-23T09:50:10;93943.78;;;6.48;80.23
38225;BME280;24025;48.138;11.428;2024-02-23T09:52:45;93937.75;;;6.51;78.33
38225;BME280;24025;48.138;11.428;2024-02-23T09:55:17;93940.00;;;6.49;77.74
38225;BME280;24025;48.138;11.428;2024-02-23T09:57:51;93931.72;;;6.54;79.79
38225;BME280;24025;48.138;11.428;2024-02-23T10:00:26;93931.28;;;6.41;78.71
38225;BME280;24025;48.138;11.428;2024-02-23T10:02:58;93935.09;;;6.62;77.92
38225;BME280;24025;48.138;11.428;2024-02-23T10:05:30;93932.84;;;6.71;77.86
38225;BME280;24025;48.138;11.428;2024-02-23T10:08:10;93935.88;;;6.80;77.40
38225;BME280;24025;48.138;11.428;2024-02-23T10:10:45;93942.72;;;6.85;75.23
38225;BME280;24025;48.138;11.428;2024-02-23T10:13:22;93944.63;;;7.02;75.76
38225;BME280;24025;48.138;11.428;2024-02-23T10:15:55;93941.22;;;7.08;74.87
38225;BME280;24025;48.138;11.428;2024-02-23T10:18:44;93926.47;;;7.11;74.48
38225;BME280;24025;48.138;11.428;2024-02-23T10:21:17;93935.94;;;7.19;75.03
38225;BME280;24025;48.138;11.428;2024-02-23T10:23:49;93929.09;;;7.22;68.94
38225;BME280;24025;48.138;11.428;2024-02-23T10:26:22;93935.91;;;7.23;66.46
38225;BME280;24025;48.138;11.428;2024-02-23T10:28:55;93913.94;;;7.33;66.17
38225;BME280;24025;48.138;11.428;2024-02-23T10:31:27;93925.28;;;6.62;65.16
38225;BME280;24025;48.138;11.428;2024-02-23T10:33:59;93923.81;;;7.04;67.15
38225;BME280;24025;48.138;11.428;2024-02-23T10:36:31;93924.56;;;7.12;65.96
38225;BME280;24025;48.138;11.428;2024-02-23T10:39:03;93931.38;;;7.20;64.10
38225;BME280;24025;48.138;11.428;2024-02-23T10:41:37;93935.16;;;7.40;65.41
38225;BME280;24025;48.138;11.428;2024-02-23T10:44:11;93949.94;;;7.05;64.15
38225;BME280;24025;48.138;11.428;2024-02-23T10:46:44;93949.19;;;7.26;65.26
38225;BME280;24025;48.138;11.428;2024-02-23T10:49:17;93941.22;;;7.19;64.05
38225;BME280;24025;48.138;11.428;2024-02-23T10:51:51;93943.13;;;7.29;65.63
38225;BME280;24025;48.138;11.428;2024-02-23T10:54:23;93940.09;;;7.31;65.36
38225;BME280;24025;48.138;11.428;2024-02-23T10:56:55;93937.81;;;7.33;65.75
38225;BME280;24025;48.138;11.428;2024-02-23T10:59:27;93934.41;;;7.39;68.98
38225;BME280;24025;48.138;11.428;2024-02-23T11:02:00;93940.47;;;7.44;68.50
38225;BME280;24025;48.138;11.428;2024-02-23T11:04:33;93945.41;;;7.34;68.44
38225;BME280;24025;48.138;11.428;2024-02-23T11:07:13;93938.97;;;7.28;68.34
38225;BME280;24025;48.138;11.428;2024-02-23T11:09:58;93935.16;;;6.97;69.31
38225;BME280;24025;48.138;11.428;2024-02-23T11:12:29;93919.63;;;7.14;70.01
38225;BME280;24025;48.138;11.428;2024-02-23T11:15:02;93928.72;;;7.05;68.84
38225;BME280;24025;48.138;11.428;2024-02-23T11:17:36;93926.44;;;6.79;70.22
38225;BME280;24025;48.138;11.428;2024-02-23T11:20:14;93934.03;;;6.95;69.90
38225;BME280;24025;48.138;11.428;2024-02-23T11:22:59;93934.03;;;6.91;70.57
38225;BME280;24025;48.138;11.428;2024-02-23T11:25:31;93937.81;;;6.90;69.41
38225;BME280;24025;48.138;11.428;2024-02-23T11:28:05;93937.44;;;6.81;68.47
38225;BME280;24025;48.138;11.428;2024-02-23T11:30:43;93951.03;;;6.87;70.36
38225;BME280;24025;48.138;11.428;2024-02-23T11:33:25;93953.31;;;6.88;69.88
38225;BME280;24025;48.138;11.428;2024-02-23T11:36:24;93948.00;;;6.77;71.14
38225;BME280;24025;48.138;11.428;2024-02-23T11:38:57;93940.06;;;6.77;69.32
38225;BME280;24025;48.138;11.428;2024-02-23T11:41:29;93939.31;;;6.80;70.52
38225;BME280;24025;48.138;11.428;2024-02-23T11:44:01;93947.63;;;6.79;69.73
38225;BME280;24025;48.138;11.428;2024-02-23T11:46:34;93946.84;;;6.68;70.23
38225;BME280;24025;48.138;11.428;2024-02-23T11:49:06;93948.38;;;6.65;69.68
38225;BME280;24025;48.138;11.428;2024-02-23T11:51:38;93952.06;;;6.36;68.10
38225;BME280;24025;48.138;11.428;2024-02-23T11:54:09;93951.72;;;6.37;68.72
38225;BME280;24025;48.138;11.428;2024-02-23T11:56:41;93937.75;;;6.51;68.34
38225;BME280;24025;48.138;11.428;2024-02-23T11:59:13;93932.84;;;6.57;68.65
38225;BME280;24025;48.138;11.428;2024-02-23T12:01:45;93929.78;;;6.51;68.91
38225;BME280;24025;48.138;11.428;2024-02-23T12:04:17;93928.59;;;6.20;69.57
38225;BME280;24025;48.138;11.428;2024-02-23T12:06:49;93925.22;;;6.41;68.31
38225;BME280;24025;48.138;11.428;2024-02-23T12:09:21;93914.16;;;6.03;69.83
38225;BME280;24025;48.138;11.428;2024-02-23T12:11:53;93917.22;;;6.16;69.91
38225;BME280;24025;48.138;11.428;2024-02-23T12:14:24;93917.22;;;6.12;70.39
38225;BME280;24025;48.138;11.428;2024-02-23T12:16:57;93923.22;;;6.06;70.90
38225;BME280;24025;48.138;11.428;2024-02-23T12:19:29;93917.19;;;6.05;72.36
38225;BME280;24025;48.138;11.428;2024-02-23T12:22:01;93921.72;;;6.05;73.35
38225;BME280;24025;48.138;11.428;2024-02-23T12:24:34;93913.41;;;6.06;71.59
38225;BME280;24025;48.138;11.428;2024-02-23T12:27:05;93895.63;;;6.07;71.61
38225;BME280;24025;48.138;11.428;2024-02-23T12:29:37;93889.63;;;6.17;71.40
38225;BME280;24025;48.138;11.428;2024-02-23T12:32:09;93886.22;;;6.13;71.76
38225;BME280;24025;48.138;11.428;2024-02-23T12:34:43;93898.72;;;6.23;69.35
38225;BME280;24025;48.138;11.428;2024-02-23T12:37:16;93900.97;;;6.14;68.74
38225;BME280;24025;48.138;11.428;2024-02-23T12:39:48;93904.75;;;6.16;69.29
38225;BME280;24025;48.138;11.428;2024-02-23T12:42:20;93902.53;;;6.33;68.91
38225;BME280;24025;48.138;11.428;2024-02-23T12:44:51;93903.69;;;6.39;69.78
38225;BME280;24025;48.138;11.428;2024-02-23T12:47:23;93910.47;;;6.40;68.02
38225;BME280;24025;48.138;11.428;2024-02-23T12:49:55;93909.72;;;6.32;68.68
38225;BME280;24025;48.138;11.428;2024-02-23T12:52:26;93918.78;;;6.31;68.19
38225;BME280;24025;48.138;11.428;2024-02-23T12:54:58;93911.16;;;6.12;67.61
38225;BME280;24025;48.138;11.428;2024-02-23T12:57:30;93908.16;;;6.20;67.76
38225;BME280;24025;48.138;11.428;2024-02-23T13:00:01;93894.88;;;6.03;69.03
38225;BME280;24025;48.138;11.428;2024-02-23T13:02:34;93881.69;;;6.17;68.39
38225;BME280;24025;48.138;11.428;2024-02-23T13:05:05;93885.09;;;6.17;68.44
38225;BME280;24025;48.138;11.428;2024-02-23T13:07:38;93883.94;;;6.15;67.81
38225;BME280;24025;48.138;11.428;2024-02-23T13:10:11;93893.41;;;6.16;68.74
38225;BME280;24025;48.138;11.428;2024-02-23T13:12:43;93887.75;;;6.21;68.10
38225;BME280;24025;48.138;11.428;2024-02-23T13:15:15;93891.19;;;6.36;69.05
38225;BME280;24025;48.138;11.428;2024-02-23T13:17:50;93892.31;;;6.31;68.05
38225;BME280;24025;48.138;11.428;2024-02-23T13:20:22;93903.97;;;6.16;67.61
38225;BME280;24025;48.138;11.428;2024-02-23T13:22:54;93903.63;;;6.21;68.09
38225;BME280;24025;48.138;11.428;2024-02-23T13:25:27;93900.16;;;6.06;68.29
38225;BME280;24025;48.138;11.428;2024-02-23T13:28:00;93910.75;;;6.03;67.57